MDSDMDST

Guest
Details From MDSD - Las Americas Intl
To MDST - Santiago Cibao Intl
Flight Number -
Tags Generated
Created
Modified
Stats Distance 79 nm / 146 km
Max Altitude 0 ft / 0 m
Waypoints 2
Social Downloads 1
Likes 0
Share VATSIM

Download

Looking for another format? Having issues loading an existing format? Contact us
Advertisement - Login to hide

Notes

Generated

Route

MDSD MDST

ID Type Via Altitude Latitude Longitude Leg Dist Tot Dist Heading (true) Name
O MDSD APT - 0 ft / 0 m 18.44396˚ -69.67418˚ - 0 nm - -
O MDST APT - 0 ft / 0 m 19.40876˚ -70.61689˚ 78 nm 78 nm 317° / 317° -

Altitude Profile

Advertisement - Login to hide

MDSD

Details ICAO MDSD (SDQ)
Name Las Americas Intl
Region Dominican Republic
Timezone America/Santo_Domingo (UTC-4.0)
Stats Elevation 59 ft / 18 m (AMSL)
Location 18.429662° -69.668925°
Runways 1
Magnetic Variation 11.537° W

METAR

MDSD 172300Z 03007KT 9999 FEW018 27/21 Q1016 NOSIG

Decode

TAF

Not found

Departure Runways

ID Width Length Bearing (true) Bearing (mag) Surface Threshold Offset Overrun Length
17 200 ft / 61 m 11,051 ft / 3,368 m 160.78° 172.32° Asphalt 0 ft / 0 m 0 ft / 0 m
35 200 ft / 61 m 11,051 ft / 3,368 m 340.79° 352.33° Asphalt 0 ft / 0 m 0 ft / 0 m

MDST

Details ICAO MDST (STI)
Name Santiago Cibao Intl
Region Dominican Republic
Timezone America/Santo_Domingo (UTC-4.0)
Stats Elevation 563 ft / 172 m (AMSL)
Location 19.406091° -70.604689°
Runways 1
Magnetic Variation 11.172° W

METAR

MDST 172300Z 10008KT 9999 FEW020TCU FEW022 24/19 Q1019 TCU/S/SW

Decode

TAF

Not found

Destination Runways

ID Width Length Bearing (true) Bearing (mag) Surface Threshold Offset Overrun Length
11 148 ft / 45 m 8,619 ft / 2,627 m 103.07° 114.24° Asphalt 0 ft / 0 m 200 ft / 61 m
29 148 ft / 45 m 8,619 ft / 2,627 m 283.08° 294.25° Asphalt 0 ft / 0 m 200 ft / 61 m

Approach Navaids

Runway Type Ident Frequency Range Bearing (true) Bearing (mag) Slope Elevation
11 Localiser EXP 109.30 MHz 18 nm / 33 km 103.11° 114.28° - 565 ft / 172 m (AMSL)
11 Glidescope EXP 109.30 MHz 10 nm / 19 km 103.08° 114.25° 2.80° 565 ft / 172 m (AMSL)
11 DME EXP 109.30 MHz 18 nm / 33 km - - - 563 ft / 172 m (AMSL)

Popular Alternatives